createdAt,value
2023-02-07T00:02:41.834Z,50.50
2023-02-07T00:07:44.185Z,46.00
2023-02-07T00:12:47.782Z,59.73
2023-02-07T00:17:52.909Z,57.92
2023-02-07T00:22:55.261Z,35.20
2023-02-07T00:27:59.059Z,27.40
2023-02-07T00:33:01.390Z,19.95
2023-02-07T00:38:03.735Z,23.10
2023-02-07T00:43:07.311Z,30.10
2023-02-07T00:48:09.752Z,30.55
2023-02-07T00:53:12.028Z,34.08
2023-02-07T00:58:15.695Z,34.38
2023-02-07T01:03:19.102Z,35.40
2023-02-07T01:08:21.454Z,30.52
2023-02-07T01:13:25.125Z,37.88
2023-02-07T01:18:28.592Z,35.47
2023-02-07T01:23:30.816Z,29.17
2023-02-07T01:28:34.568Z,27.93
2023-02-07T01:33:37.737Z,28.25
2023-02-07T01:38:40.540Z,28.17
2023-02-07T01:44:03.732Z,26.15
2023-02-07T01:49:11.443Z,27.58
2023-02-07T01:54:16.276Z,27.97
2023-02-07T01:59:21.342Z,25.35
2023-02-07T02:04:24.217Z,23.75
2023-02-07T02:09:27.826Z,19.23
2023-02-07T02:15:03.301Z,24.08
2023-02-07T02:20:47.468Z,21.40
2023-02-07T02:26:41.290Z,16.38
2023-02-07T02:32:36.863Z,20.23
2023-02-07T02:37:52.565Z,17.42
2023-02-07T02:43:06.097Z,16.48
2023-02-07T02:48:11.806Z,14.63
2023-02-07T02:53:16.982Z,10.48
2023-02-07T02:58:37.362Z,10.50
2023-02-07T03:03:59.129Z,12.98
2023-02-07T03:09:17.207Z,11.73
2023-02-07T03:14:34.742Z,13.93
2023-02-07T03:19:46.273Z,13.13
2023-02-07T03:24:55.060Z,10.25
2023-02-07T03:30:04.772Z,9.02
2023-02-07T03:35:14.709Z,8.40
2023-02-07T03:40:19.757Z,10.87
2023-02-07T03:45:22.786Z,10.73
2023-02-07T03:50:25.534Z,11.70
2023-02-07T03:55:29.303Z,9.77
2023-02-07T04:00:31.545Z,8.88
2023-02-07T04:05:33.804Z,8.97
2023-02-07T04:10:37.458Z,11.50
2023-02-07T04:15:39.877Z,9.70
2023-02-07T04:20:42.217Z,9.77
2023-02-07T04:25:45.707Z,8.50
2023-02-07T04:30:50.276Z,9.60
2023-02-07T04:35:56.521Z,13.10
2023-02-07T04:41:01.940Z,10.48
2023-02-07T04:46:06.279Z,11.48
2023-02-07T04:51:08.586Z,11.63
2023-02-07T04:56:12.274Z,8.93
2023-02-07T05:01:14.556Z,10.90
2023-02-07T05:06:16.752Z,9.40
2023-02-07T05:11:20.264Z,11.05
2023-02-07T05:16:22.433Z,10.57
2023-02-07T05:21:24.600Z,12.13
2023-02-07T05:26:28.139Z,10.13
2023-02-07T05:31:30.516Z,10.25
2023-02-07T05:36:32.885Z,10.18
2023-02-07T05:41:36.535Z,11.43
2023-02-07T05:46:38.970Z,11.90
2023-02-07T05:51:41.327Z,10.80
2023-02-07T05:56:45.151Z,10.00
2023-02-07T06:01:47.415Z,12.30
2023-02-07T06:07:54.207Z,14.85
2023-02-07T06:13:02.030Z,10.43
2023-02-07T06:18:04.514Z,11.32
2023-02-07T06:23:07.334Z,10.98
2023-02-07T06:28:11.035Z,15.90
2023-02-07T06:33:13.678Z,12.65
2023-02-07T06:38:17.981Z,12.43
2023-02-07T06:43:21.620Z,11.02
2023-02-07T06:48:23.923Z,20.40
2023-02-07T06:53:26.212Z,21.80
2023-02-07T06:58:29.860Z,19.38
2023-02-07T07:03:32.829Z,17.93
2023-02-07T07:08:35.359Z,13.90
2023-02-07T07:13:39.791Z,11.25
2023-02-07T07:18:42.186Z,13.30
2023-02-07T07:23:44.672Z,17.48
2023-02-07T07:28:48.423Z,18.00
2023-02-07T07:33:50.809Z,18.60
2023-02-07T07:38:53.131Z,16.30
2023-02-07T07:43:56.911Z,16.13
2023-02-07T07:48:59.196Z,21.55
2023-02-07T07:54:01.817Z,18.00
2023-02-07T07:59:08.801Z,19.75
2023-02-07T08:04:14.461Z,24.10
2023-02-07T08:09:17.010Z,18.63
2023-02-07T08:14:20.698Z,18.15
2023-02-07T08:19:23.881Z,16.60
2023-02-07T08:24:26.273Z,13.23
2023-02-07T08:29:30.112Z,14.45
2023-02-07T08:34:33.115Z,15.85
2023-02-07T08:39:36.180Z,14.98
2023-02-07T08:44:39.908Z,20.70
2023-02-07T08:49:43.279Z,18.27
2023-02-07T08:54:45.678Z,16.60
2023-02-07T08:59:49.798Z,30.27
2023-02-07T09:04:52.401Z,24.88
2023-02-07T09:09:55.184Z,19.77
2023-02-07T09:14:59.110Z,17.35
2023-02-07T09:20:08.422Z,15.82
2023-02-07T09:25:10.898Z,18.17
2023-02-07T09:30:15.349Z,16.52
2023-02-07T09:35:18.034Z,17.30
2023-02-07T09:40:22.322Z,22.15
2023-02-07T09:45:36.583Z,16.55
2023-02-07T09:50:49.524Z,27.08
2023-02-07T09:55:59.356Z,33.75
2023-02-07T10:01:11.029Z,37.00
2023-02-07T10:06:22.553Z,25.17
2023-02-07T10:11:42.920Z,24.95
2023-02-07T10:17:12.201Z,34.45
2023-02-07T10:22:34.540Z,25.23
2023-02-07T10:27:47.479Z,24.47
2023-02-07T10:32:51.743Z,23.58
2023-02-07T10:38:00.177Z,25.52
2023-02-07T10:43:09.094Z,26.98
2023-02-07T10:48:16.800Z,29.45
2023-02-07T10:53:54.315Z,25.47
2023-02-07T10:58:59.642Z,28.10
2023-02-07T11:04:24.432Z,29.88
2023-02-07T11:09:27.144Z,31.10
2023-02-07T11:14:29.767Z,23.73
2023-02-07T11:19:33.651Z,12.67
2023-02-07T11:24:38.315Z,14.60
2023-02-07T11:29:55.729Z,8.23
2023-02-07T11:35:04.212Z,15.20
2023-02-07T11:40:26.867Z,18.33
2023-02-07T11:45:32.831Z,17.87
2023-02-07T11:50:40.534Z,25.20
2023-02-07T11:55:43.864Z,18.13
2023-02-07T12:00:47.778Z,11.23
2023-02-07T12:05:56.022Z,9.13
2023-02-07T12:11:04.842Z,20.17
2023-02-07T12:16:17.361Z,50.60
2023-02-07T12:21:26.537Z,14.75
2023-02-07T12:26:33.759Z,14.35
2023-02-07T12:31:49.697Z,14.60
2023-02-07T12:37:04.478Z,11.50
2023-02-07T12:42:30.438Z,10.25
2023-02-07T12:47:50.639Z,8.95
2023-02-07T12:53:11.404Z,10.27
2023-02-07T12:58:34.481Z,11.73
2023-02-07T13:04:14.708Z,12.83
2023-02-07T13:09:34.092Z,10.40
2023-02-07T13:15:01.045Z,16.92
2023-02-07T13:20:18.856Z,14.15
2023-02-07T13:25:28.720Z,16.20
2023-02-07T13:30:32.381Z,14.97
2023-02-07T13:35:39.594Z,15.95
2023-02-07T13:40:55.693Z,20.33
2023-02-07T13:46:12.521Z,16.20
2023-02-07T13:51:27.567Z,11.98
2023-02-07T13:56:36.137Z,14.23
2023-02-07T14:01:50.535Z,12.77
2023-02-07T14:07:04.996Z,14.38
2023-02-07T14:12:21.000Z,12.55
2023-02-07T14:17:56.995Z,16.90
2023-02-07T14:23:17.717Z,18.70
2023-02-07T14:28:40.383Z,15.20
2023-02-07T14:34:11.976Z,17.75
2023-02-07T14:39:30.516Z,45.03
2023-02-07T14:44:39.641Z,60.65
2023-02-07T14:49:47.128Z,46.53
2023-02-07T14:54:55.053Z,32.55
2023-02-07T15:00:14.745Z,35.67
2023-02-07T15:05:22.146Z,26.80
2023-02-07T15:10:36.704Z,19.25
2023-02-07T15:15:51.002Z,16.40
2023-02-07T15:20:58.592Z,22.95
2023-02-07T15:26:07.313Z,25.55
2023-02-07T15:31:16.657Z,26.98
2023-02-07T15:36:35.567Z,23.38
2023-02-07T15:41:38.352Z,29.93
2023-02-07T15:46:49.960Z,26.23
2023-02-07T15:51:54.707Z,24.50
2023-02-07T15:57:00.502Z,20.92
2023-02-07T16:02:04.621Z,20.13
2023-02-07T16:07:13.969Z,24.23
2023-02-07T16:12:49.664Z,36.00
2023-02-07T16:17:54.050Z,34.78
2023-02-07T16:23:00.144Z,31.05
2023-02-07T16:28:09.772Z,31.85
2023-02-07T16:33:14.713Z,32.67
2023-02-07T16:38:19.406Z,42.40
2023-02-07T16:43:41.122Z,49.63
2023-02-07T16:48:46.093Z,42.83
2023-02-07T16:53:48.643Z,35.17
2023-02-07T16:58:51.154Z,39.10
2023-02-07T17:03:54.870Z,32.00
2023-02-07T17:08:57.273Z,39.55
2023-02-07T17:13:59.936Z,49.53
2023-02-07T17:19:10.648Z,54.10
2023-02-07T17:24:13.721Z,47.50
2023-02-07T17:29:18.063Z,41.85
2023-02-07T17:34:22.821Z,29.35
2023-02-07T17:39:25.308Z,33.22
2023-02-07T17:44:27.597Z,42.47
2023-02-07T17:49:31.625Z,36.97
2023-02-07T17:54:34.113Z,42.85
2023-02-07T17:59:37.420Z,34.78
2023-02-07T18:04:41.727Z,43.85
2023-02-07T18:09:44.528Z,36.50
2023-02-07T18:14:47.020Z,40.60
2023-02-07T18:19:50.919Z,33.88
2023-02-07T18:24:53.840Z,34.78
2023-02-07T18:29:56.215Z,32.42
2023-02-07T18:35:01.007Z,28.98
2023-02-07T18:40:07.045Z,33.10
2023-02-07T18:45:10.489Z,26.35
2023-02-07T18:50:14.533Z,26.90
2023-02-07T18:55:17.440Z,29.35
2023-02-07T19:00:20.477Z,31.40
2023-02-07T19:05:25.181Z,29.53
2023-02-07T19:10:28.236Z,30.58
2023-02-07T19:15:30.936Z,33.28
2023-02-07T19:20:34.652Z,34.72
2023-02-07T19:25:37.583Z,46.80
2023-02-07T19:30:40.477Z,53.73
2023-02-07T19:35:44.888Z,48.58
2023-02-07T19:40:56.488Z,64.00
2023-02-07T19:45:59.034Z,66.95
2023-02-07T19:51:06.910Z,61.80
2023-02-07T19:56:09.528Z,61.90
2023-02-07T20:01:12.294Z,55.40
2023-02-07T20:06:17.151Z,53.05
2023-02-07T20:11:21.331Z,60.67
2023-02-07T20:16:26.927Z,55.03
2023-02-07T20:21:31.339Z,58.90
2023-02-07T20:26:38.054Z,57.03
2023-02-07T20:31:41.014Z,59.70
2023-02-07T20:36:47.230Z,59.67
2023-02-07T20:41:50.223Z,59.67
2023-02-07T20:46:54.061Z,57.87
2023-02-07T20:51:59.505Z,66.85
2023-02-07T20:57:02.393Z,59.67
2023-02-07T21:02:05.765Z,65.38
2023-02-07T21:07:13.526Z,64.85
2023-02-07T21:12:17.132Z,66.60
2023-02-07T21:17:20.125Z,67.13
2023-02-07T21:22:24.740Z,70.50
2023-02-07T21:27:28.329Z,73.85
2023-02-07T21:32:31.253Z,73.20
2023-02-07T21:37:35.851Z,78.83
2023-02-07T21:42:39.173Z,66.25
2023-02-07T21:47:42.437Z,66.05
2023-02-07T21:52:47.840Z,71.57
2023-02-07T21:57:50.095Z,64.00
2023-02-07T22:02:52.207Z,66.20
2023-02-07T22:07:55.859Z,66.15
2023-02-07T22:12:58.772Z,60.08
2023-02-07T22:18:00.928Z,60.88
2023-02-07T22:23:04.432Z,61.22
2023-02-07T22:28:06.721Z,62.37
2023-02-07T22:33:11.532Z,59.63
2023-02-07T22:38:15.162Z,61.78
2023-02-07T22:43:17.595Z,59.95
2023-02-07T22:48:19.819Z,62.85
2023-02-07T22:53:23.359Z,58.70
2023-02-07T22:58:25.477Z,59.63
2023-02-07T23:03:27.792Z,59.13
2023-02-07T23:08:31.366Z,51.85
2023-02-07T23:13:33.652Z,52.35
2023-02-07T23:18:35.847Z,57.03
2023-02-07T23:23:40.325Z,55.53
2023-02-07T23:28:43.347Z,55.33
2023-02-07T23:33:46.236Z,48.03
2023-02-07T23:38:51.134Z,54.50
2023-02-07T23:43:53.378Z,44.83
2023-02-07T23:48:55.686Z,48.60
2023-02-07T23:53:59.227Z,47.10
2023-02-07T23:59:01.782Z,42.35
